Ursa Minor — ICGH — position and weather

sailwx.info

Track history (hours):
 
Tides and Currents Weather Stations Pressure Air Temp Water Temp Dewpoint Dewpoint Depression Visibility Wind Speed Wind Dir Waves Ship Positions

Ursa Minor

Last reported at 2015-Jan-27 16:15 UTC. Time now 2015-Jan-31 05:35 UTC.
Position N 40°28' E 014°06'.

Length 205 m; draft 7.8 m.

MMSI: 247082300.

Date/timePositionNaut miles runAvg speedWind from/ knotsBaromVisibWave heightAir tempDewpointWater temp
2015-Jan-27 16:15N 40°28' E 014°06'912.6
2015-Jan-27 15:33N 40°33' E 013°57'1312.5
2015-Jan-27 14:32N 40°41' E 013°44'1212.6
2015-Jan-27 13:33N 40°49' E 013°31'21512.4
2015-Jan-26 20:08N 43°22' E 010°07'712.5
2015-Jan-26 19:33N 43°28' E 010°02'1212.6
2015-Jan-26 18:34N 43°38' E 009°51'1211.5
2015-Jan-26 17:33N 43°46' E 009°40'1211.9
2015-Jan-26 16:33N 43°55' E 009°28'1212.4
2015-Jan-26 15:34N 44°04' E 009°16'1212.0
2015-Jan-26 14:33N 44°13' E 009°05'1212.2
2015-Jan-26 13:33N 44°23' E 008°55'3 2.9
2015-Jan-26 12:32N 44°24' E 008°52'0 0.0
2015-Jan-26 11:32N 44°24' E 008°52'0 0.0
2015-Jan-26 10:32N 44°24' E 008°52'0 0.0
2015-Jan-26 09:29N 44°24' E 008°52'0 0.0
2015-Jan-26 08:29N 44°24' E 008°52'0 0.0
2015-Jan-26 07:32N 44°24' E 008°52'0 0.2
2015-Jan-26 06:30N 44°24' E 008°52'2 2.1
2015-Jan-26 05:33N 44°24' E 008°55'10 9.8
2015-Jan-26 04:33N 44°17' E 009°04'1312.6
2015-Jan-26 03:33N 44°09' E 009°19'1312.8
2015-Jan-26 02:33N 44°01' E 009°33'1312.6
2015-Jan-26 01:34N 43°53' E 009°46'1111.3
2015-Jan-26 00:34N 43°43' E 009°52'1111.4
2015-Jan-25 23:33N 43°32' E 009°58'1211.9
2015-Jan-25 22:34N 43°23' E 010°08'1211.9
2015-Jan-25 21:34N 43°12' E 010°15'19812.3
2015-Jan-25 05:28N 40°53' E 013°24'1213.5
2015-Jan-25 04:33N 40°45' E 013°37'1313.4
2015-Jan-25 03:33N 40°37' E 013°50'1313.2
2015-Jan-25 02:33N 40°28' E 014°04'15312.2
2015-Jan-24 14:04N 38°13' E 015°37'712.0
2015-Jan-24 13:29N 38°07' E 015°36'  
2015-Jan-21 14:24N 40°28' E 014°06'1113.2
2015-Jan-21 13:33N 40°35' E 013°54'1313.2
2015-Jan-21 12:33N 40°43' E 013°41'1313.2
2015-Jan-21 11:33N 40°51' E 013°27'21712.8
2015-Jan-20 18:34N 43°27' E 010°03'1313.2
2015-Jan-20 17:34N 43°37' E 009°52'1313.0
2015-Jan-20 16:33N 43°47' E 009°40'1313.2
2015-Jan-20 15:34N 43°56' E 009°27'1312.9
2015-Jan-20 14:34N 44°06' E 009°15'1313.2
2015-Jan-20 13:33N 44°16' E 009°02'1111.4
2015-Jan-20 12:33N 44°24' E 008°52'0 0.1
2015-Jan-20 11:33N 44°24' E 008°52'0 0.0
2015-Jan-20 10:33N 44°24' E 008°52'0 0.0
2015-Jan-20 09:33N 44°24' E 008°52'0 0.0
2015-Jan-20 08:33N 44°24' E 008°52'0 0.0
2015-Jan-20 07:33N 44°24' E 008°52'0 0.3
2015-Jan-20 06:34N 44°24' E 008°52'8 7.5
2015-Jan-20 05:33N 44°19' E 009°01'1313.0
2015-Jan-20 04:33N 44°09' E 009°12'1313.4
2015-Jan-20 03:33N 43°59' E 009°25'1313.2
2015-Jan-20 02:34N 43°50' E 009°37'1413.4
2015-Jan-20 01:33N 43°39' E 009°49'1313.4
2015-Jan-20 00:34N 43°30' E 010°01'1313.1
2015-Jan-19 23:34N 43°18' E 010°09'1313.0
2015-Jan-19 22:33N 43°06' E 010°18'1313.0
2015-Jan-19 21:32N 42°55' E 010°27'1513.1
2015-Jan-19 20:22N 42°43' E 010°40'15913.2
2015-Jan-19 08:24N 40°57' E 013°17'1213.3
2015-Jan-19 07:29N 40°49' E 013°30'1213.2
2015-Jan-19 06:33N 40°41' E 013°43'1313.3
2015-Jan-19 05:33N 40°33' E 013°56'1313.0
2015-Jan-19 04:33N 40°23' E 014°08'14612.9
2015-Jan-18 17:16N 38°17' E 015°43'  
Track history (hours):
 
Tides and Currents Weather Stations Pressure Air Temp Water Temp Dewpoint Dewpoint Depression Visibility Wind Speed Wind Dir Waves Ship Positions

Ursa Minor

Last reported at 2015-Jan-27 16:15 UTC. Time now 2015-Jan-31 05:35 UTC.
Position N 40°28' E 014°06'.

Length 205 m; draft 7.8 m.

MMSI: 247082300.

Date/timePositionNaut miles runAvg speedWind from/ knotsBaromVisibWave heightAir tempDewpointWater temp
2015-Jan-27 16:15N 40°28' E 014°06'912.6
2015-Jan-27 15:33N 40°33' E 013°57'1312.5
2015-Jan-27 14:32N 40°41' E 013°44'1212.6
2015-Jan-27 13:33N 40°49' E 013°31'21512.4
2015-Jan-26 20:08N 43°22' E 010°07'712.5
2015-Jan-26 19:33N 43°28' E 010°02'1212.6
2015-Jan-26 18:34N 43°38' E 009°51'1211.5
2015-Jan-26 17:33N 43°46' E 009°40'1211.9
2015-Jan-26 16:33N 43°55' E 009°28'1212.4
2015-Jan-26 15:34N 44°04' E 009°16'1212.0
2015-Jan-26 14:33N 44°13' E 009°05'1212.2
2015-Jan-26 13:33N 44°23' E 008°55'3 2.9
2015-Jan-26 12:32N 44°24' E 008°52'0 0.0
2015-Jan-26 11:32N 44°24' E 008°52'0 0.0
2015-Jan-26 10:32N 44°24' E 008°52'0 0.0
2015-Jan-26 09:29N 44°24' E 008°52'0 0.0
2015-Jan-26 08:29N 44°24' E 008°52'0 0.0
2015-Jan-26 07:32N 44°24' E 008°52'0 0.2
2015-Jan-26 06:30N 44°24' E 008°52'2 2.1
2015-Jan-26 05:33N 44°24' E 008°55'10 9.8
2015-Jan-26 04:33N 44°17' E 009°04'1312.6
2015-Jan-26 03:33N 44°09' E 009°19'1312.8
2015-Jan-26 02:33N 44°01' E 009°33'1312.6
2015-Jan-26 01:34N 43°53' E 009°46'1111.3
2015-Jan-26 00:34N 43°43' E 009°52'1111.4
2015-Jan-25 23:33N 43°32' E 009°58'1211.9
2015-Jan-25 22:34N 43°23' E 010°08'1211.9
2015-Jan-25 21:34N 43°12' E 010°15'19812.3
2015-Jan-25 05:28N 40°53' E 013°24'1213.5
2015-Jan-25 04:33N 40°45' E 013°37'1313.4
2015-Jan-25 03:33N 40°37' E 013°50'1313.2
2015-Jan-25 02:33N 40°28' E 014°04'15312.2
2015-Jan-24 14:04N 38°13' E 015°37'712.0
2015-Jan-24 13:29N 38°07' E 015°36'  
2015-Jan-21 14:24N 40°28' E 014°06'1113.2
2015-Jan-21 13:33N 40°35' E 013°54'1313.2
2015-Jan-21 12:33N 40°43' E 013°41'1313.2
2015-Jan-21 11:33N 40°51' E 013°27'21712.8
2015-Jan-20 18:34N 43°27' E 010°03'1313.2
2015-Jan-20 17:34N 43°37' E 009°52'1313.0
2015-Jan-20 16:33N 43°47' E 009°40'1313.2
2015-Jan-20 15:34N 43°56' E 009°27'1312.9
2015-Jan-20 14:34N 44°06' E 009°15'1313.2
2015-Jan-20 13:33N 44°16' E 009°02'1111.4
2015-Jan-20 12:33N 44°24' E 008°52'0 0.1
2015-Jan-20 11:33N 44°24' E 008°52'0 0.0
2015-Jan-20 10:33N 44°24' E 008°52'0 0.0
2015-Jan-20 09:33N 44°24' E 008°52'0 0.0
2015-Jan-20 08:33N 44°24' E 008°52'0 0.0
2015-Jan-20 07:33N 44°24' E 008°52'0 0.3
2015-Jan-20 06:34N 44°24' E 008°52'8 7.5
2015-Jan-20 05:33N 44°19' E 009°01'1313.0
2015-Jan-20 04:33N 44°09' E 009°12'1313.4
2015-Jan-20 03:33N 43°59' E 009°25'1313.2
2015-Jan-20 02:34N 43°50' E 009°37'1413.4
2015-Jan-20 01:33N 43°39' E 009°49'1313.4
2015-Jan-20 00:34N 43°30' E 010°01'1313.1
2015-Jan-19 23:34N 43°18' E 010°09'1313.0
2015-Jan-19 22:33N 43°06' E 010°18'1313.0
2015-Jan-19 21:32N 42°55' E 010°27'1513.1
2015-Jan-19 20:22N 42°43' E 010°40'15913.2
2015-Jan-19 08:24N 40°57' E 013°17'1213.3
2015-Jan-19 07:29N 40°49' E 013°30'1213.2
2015-Jan-19 06:33N 40°41' E 013°43'1313.3
2015-Jan-19 05:33N 40°33' E 013°56'1313.0
2015-Jan-19 04:33N 40°23' E 014°08'14612.9
2015-Jan-18 17:16N 38°17' E 015°43'  

Dump ship's entire track history